Time;durP1;ratioP1;P1;durP2;ratioP2;P2;SDS_P1;SDS_P2;PMS_P1;PMS_P2;Temp;Humidity;BMP_temperature;BMP_pressure;BME280_temperature;BME280_humidity;BME280_pressure;Samples;Min_cycle;Max_cycle;Signal;HPM_P1;HPM_P2
2023/01/03 00:00:51;;;;;;;26.63;12.90;;;4.10;99.90;;;;;;5028352;28;20120;-66
2023/01/03 00:03:16;;;;;;;26.42;12.27;;;4.10;99.90;;;;;;5031552;28;20105;-67
2023/01/03 00:05:43;;;;;;;28.40;12.82;;;4.00;99.90;;;;;;5027680;28;21049;-66
2023/01/03 00:08:09;;;;;;;28.73;12.48;;;3.90;99.90;;;;;;5010506;28;20277;-66
2023/01/03 00:10:34;;;;;;;34.05;12.48;;;3.90;99.90;;;;;;5031718;28;20038;-67
2023/01/03 00:13:00;;;;;;;27.02;12.38;;;3.90;99.90;;;;;;5014491;28;20128;-67
2023/01/03 00:15:25;;;;;;;31.23;12.75;;;3.90;99.90;;;;;;5026709;28;20480;-66
2023/01/03 00:17:52;;;;;;;26.42;13.35;;;3.80;99.90;;;;;;5012765;28;20038;-66
2023/01/03 00:20:18;;;;;;;30.23;12.88;;;3.80;99.90;;;;;;5022244;28;20033;-67
2023/01/03 00:22:44;;;;;;;29.98;12.90;;;3.80;99.90;;;;;;5022601;28;20034;-67
2023/01/03 00:25:09;;;;;;;30.35;12.85;;;3.70;99.90;;;;;;5031387;28;20076;-66
2023/01/03 00:27:35;;;;;;;29.13;13.25;;;3.70;99.90;;;;;;5021365;28;20042;-67
2023/01/03 00:30:00;;;;;;;27.77;12.35;;;3.60;99.90;;;;;;5030985;28;20099;-65
2023/01/03 00:32:26;;;;;;;28.67;12.50;;;3.60;99.90;;;;;;5008153;28;20029;-67
2023/01/03 00:34:52;;;;;;;31.10;12.50;;;3.50;99.90;;;;;;5016999;28;20102;-67
2023/01/03 00:37:18;;;;;;;36.80;13.77;;;3.50;99.90;;;;;;5030939;28;20041;-67
2023/01/03 00:39:43;;;;;;;38.28;15.45;;;3.60;99.90;;;;;;5013718;28;20034;-66
2023/01/03 00:42:09;;;;;;;35.67;13.85;;;3.60;99.90;;;;;;5012525;28;20557;-66
2023/01/03 00:44:35;;;;;;;29.60;11.93;;;3.60;99.90;;;;;;5030690;28;20400;-67
2023/01/03 00:47:01;;;;;;;28.80;12.35;;;3.50;99.90;;;;;;5013961;28;20134;-67
2023/01/03 00:49:27;;;;;;;24.13;12.13;;;3.40;99.90;;;;;;5009247;28;20087;-66
2023/01/03 00:51:53;;;;;;;30.55;12.70;;;3.30;99.90;;;;;;5028138;28;20037;-67
2023/01/03 00:54:19;;;;;;;33.85;13.13;;;3.40;99.90;;;;;;5013472;28;20168;-67
2023/01/03 00:56:47;;;;;;;34.67;13.93;;;3.40;99.90;;;;;;5019005;28;20099;-66
2023/01/03 00:59:14;;;;;;;37.13;14.45;;;3.40;99.90;;;;;;5013536;28;20118;-67
2023/01/03 01:01:46;;;;;;;30.23;13.95;;;3.40;99.90;;;;;;5025376;28;20131;-67
2023/01/03 01:04:25;;;;;;;33.10;13.77;;;3.40;99.90;;;;;;5030172;28;20190;-67
2023/01/03 01:07:01;;;;;;;30.38;13.50;;;3.40;99.90;;;;;;5025866;28;20046;-67
2023/01/03 01:09:30;;;;;;;38.92;13.57;;;3.40;99.90;;;;;;5015244;28;20373;-66
2023/01/03 01:11:56;;;;;;;33.05;14.45;;;3.40;99.90;;;;;;5030541;28;20045;-66
2023/01/03 01:14:24;;;;;;;31.05;13.68;;;3.30;99.90;;;;;;5016582;28;20033;-66
2023/01/03 01:16:58;;;;;;;33.17;14.15;;;3.30;99.90;;;;;;5027471;28;20095;-67
2023/01/03 01:19:29;;;;;;;31.33;13.73;;;3.30;99.90;;;;;;5013220;28;20072;-67
2023/01/03 01:21:54;;;;;;;30.30;12.73;;;3.20;99.90;;;;;;5017289;28;20061;-67
2023/01/03 01:24:20;;;;;;;33.95;13.82;;;3.20;99.90;;;;;;5007671;28;20114;-66
2023/01/03 01:26:46;;;;;;;34.13;13.45;;;3.10;99.90;;;;;;5015995;28;20511;-66
2023/01/03 01:29:13;;;;;;;30.38;12.75;;;3.20;99.90;;;;;;5024309;28;20030;-66
2023/01/03 01:31:40;;;;;;;31.48;14.07;;;3.20;99.90;;;;;;5029395;28;20038;-67
2023/01/03 01:34:06;;;;;;;29.20;13.93;;;3.20;99.90;;;;;;5030420;28;20147;-66
2023/01/03 01:36:38;;;;;;;37.35;13.48;;;3.20;99.90;;;;;;5012878;28;20038;-67
2023/01/03 01:39:10;;;;;;;31.25;13.48;;;3.20;99.90;;;;;;5004627;28;20045;-67
2023/01/03 01:44:39;;;;;;;30.25;12.88;;;3.20;99.90;;;;;;4993265;28;20053;-67
2023/01/03 01:47:13;;;;;;;32.08;13.93;;;3.10;99.90;;;;;;5001269;28;20076;-67
2023/01/03 01:49:39;;;;;;;34.67;13.25;;;3.10;99.90;;;;;;5030033;28;20165;-67
2023/01/03 01:52:05;;;;;;;33.05;12.80;;;3.00;99.90;;;;;;5028111;28;20484;-66
2023/01/03 01:54:31;;;;;;;31.15;13.13;;;3.00;99.90;;;;;;5026252;28;20167;-66
2023/01/03 01:56:57;;;;;;;38.92;14.10;;;3.00;99.90;;;;;;5011946;28;20096;-67
2023/01/03 01:59:22;;;;;;;40.80;13.57;;;2.90;99.90;;;;;;5024134;28;20048;-67
2023/01/03 02:01:49;;;;;;;33.90;13.55;;;2.90;99.90;;;;;;5016404;28;20041;-67
2023/01/03 02:04:21;;;;;;;40.70;14.43;;;2.90;99.90;;;;;;5010793;28;20049;-67
2023/01/03 02:06:48;;;;;;;37.90;16.25;;;2.90;99.90;;;;;;5032399;28;20550;-65
2023/01/03 02:09:13;;;;;;;37.75;14.82;;;2.90;99.90;;;;;;5034195;28;20081;-66
2023/01/03 02:11:50;;;;;;;34.28;13.90;;;2.90;99.90;;;;;;5023489;28;20077;-67
2023/01/03 02:14:34;;;;;;;35.50;14.23;;;2.90;99.90;;;;;;5028010;28;20033;-67
2023/01/03 02:17:14;;;;;;;32.40;14.88;;;2.90;99.90;;;;;;5017373;28;20103;-67
2023/01/03 02:20:02;;;;;;;39.95;13.73;;;2.90;99.90;;;;;;5024511;28;20045;-66
2023/01/03 02:22:39;;;;;;;35.58;13.50;;;2.80;99.90;;;;;;5027494;28;20030;-66
2023/01/03 02:25:39;;;;;;;38.95;14.00;;;2.70;99.90;;;;;;5024086;28;20041;-66
2023/01/03 02:28:11;;;;;;;40.38;14.57;;;2.60;99.90;;;;;;5012707;28;20038;-67
2023/01/03 02:30:57;;;;;;;38.97;14.63;;;2.60;99.90;;;;;;5007537;28;20063;-67
2023/01/03 02:33:35;;;;;;;43.63;15.13;;;2.60;99.90;;;;;;5012853;28;20038;-67
2023/01/03 02:36:19;;;;;;;37.78;14.52;;;2.70;99.90;;;;;;5029345;28;20079;-66
2023/01/03 02:39:03;;;;;;;49.70;16.75;;;2.70;99.90;;;;;;5030554;28;20052;-66
2023/01/03 02:41:44;;;;;;;53.17;16.95;;;2.60;99.90;;;;;;5032114;28;20499;-67
2023/01/03 02:44:30;;;;;;;47.90;17.80;;;2.60;99.90;;;;;;5033536;28;20053;-67
2023/01/03 02:47:04;;;;;;;55.08;18.80;;;2.60;99.90;;;;;;5021636;28;20629;-66
2023/01/03 02:49:35;;;;;;;54.65;19.13;;;2.60;99.90;;;;;;5033244;28;20490;-67
2023/01/03 02:52:04;;;;;;;68.35;21.45;;;2.60;99.90;;;;;;5033367;28;20038;-66
2023/01/03 02:54:53;;;;;;;67.63;20.92;;;2.70;99.90;;;;;;5022455;28;20045;-67
2023/01/03 02:57:24;;;;;;;66.43;21.60;;;2.70;99.90;;;;;;5010071;28;20041;-66
2023/01/03 03:00:02;;;;;;;66.63;21.70;;;2.70;99.90;;;;;;5033500;28;20072;-67
2023/01/03 03:02:32;;;;;;;67.45;22.02;;;2.80;99.90;;;;;;5013421;28;20065;-67
2023/01/03 03:05:01;;;;;;;66.03;21.92;;;2.70;99.90;;;;;;5032927;28;20096;-66
2023/01/03 03:07:35;;;;;;;71.07;22.95;;;2.70;99.90;;;;;;5032710;28;20041;-67
2023/01/03 03:15:39;;;;;;;74.32;23.15;;;2.70;99.90;;;;;;5015067;28;20542;-66
2023/01/03 03:18:17;;;;;;;72.83;22.77;;;2.70;99.90;;;;;;5030683;28;20044;-66
2023/01/03 03:26:21;;;;;;;66.20;22.52;;;2.70;99.90;;;;;;5017516;28;20164;-66
2023/01/03 03:28:52;;;;;;;81.10;24.58;;;2.60;99.90;;;;;;5026020;28;20124;-67
2023/01/03 03:31:29;;;;;;;;;;;2.60;99.90;;;;;;5031788;28;20041;-66
2023/01/03 03:34:22;;;;;;;57.10;20.40;;;2.50;99.90;;;;;;5025382;28;19918;-67
2023/01/03 03:37:06;;;;;;;70.45;21.92;;;2.50;99.90;;;;;;5011818;28;20045;-66
2023/01/03 03:45:34;;;;;;;65.97;23.08;;;2.40;99.90;;;;;;5022479;28;20044;-66
2023/01/03 03:48:22;;;;;;;66.60;23.02;;;2.40;99.90;;;;;;5022744;28;20045;-67
2023/01/03 03:51:18;;;;;;;69.13;24.67;;;2.50;99.90;;;;;;5010243;28;20045;-65
2023/01/03 03:53:45;;;;;;;61.72;22.45;;;2.50;99.90;;;;;;5002937;28;20053;-64
2023/01/03 03:56:17;;;;;;;70.50;23.75;;;2.50;99.90;;;;;;5030996;28;20096;-66
2023/01/03 03:58:48;;;;;;;67.72;22.95;;;2.40;99.90;;;;;;5033244;28;20487;-66
2023/01/03 04:01:16;;;;;;;60.47;21.50;;;2.30;99.90;;;;;;5024392;28;20038;-66
2023/01/03 04:03:44;;;;;;;58.00;22.15;;;2.20;99.90;;;;;;5030643;28;20046;-67
2023/01/03 04:06:30;;;;;;;59.50;22.75;;;2.20;99.90;;;;;;5031321;28;20048;-67
2023/01/03 04:08:57;;;;;;;55.47;20.80;;;2.30;99.90;;;;;;5022911;28;20046;-66
2023/01/03 04:11:22;;;;;;;55.42;21.17;;;2.20;99.90;;;;;;5009228;28;20077;-66
2023/01/03 04:13:48;;;;;;;58.63;21.30;;;2.20;99.90;;;;;;5032405;28;20456;-66
2023/01/03 04:16:14;;;;;;;55.70;20.25;;;2.10;99.90;;;;;;5025826;28;20088;-67
2023/01/03 04:18:39;;;;;;;60.30;21.23;;;2.00;99.90;;;;;;5025876;28;20046;-67
2023/01/03 04:21:05;;;;;;;64.03;22.38;;;2.10;99.90;;;;;;5014356;28;20041;-66
2023/01/03 04:23:31;;;;;;;60.03;22.08;;;2.10;99.90;;;;;;5014812;28;20042;-64
2023/01/03 04:25:56;;;;;;;56.88;20.50;;;2.00;99.90;;;;;;5027875;28;20116;-66
2023/01/03 04:28:22;;;;;;;57.95;21.60;;;2.00;99.90;;;;;;5013422;28;20183;-66
2023/01/03 04:30:48;;;;;;;59.50;21.88;;;2.10;99.90;;;;;;5023976;28;20033;-66
2023/01/03 04:33:13;;;;;;;62.15;21.75;;;2.10;99.90;;;;;;5022852;28;20167;-66
2023/01/03 04:35:39;;;;;;;66.95;22.88;;;2.10;99.90;;;;;;5017542;28;20045;-67
2023/01/03 04:38:06;;;;;;;61.22;22.98;;;2.10;99.90;;;;;;5031389;28;20602;-66
2023/01/03 04:40:35;;;;;;;66.65;23.65;;;2.10;99.90;;;;;;5014369;28;20136;-66
2023/01/03 04:45:47;;;;;;;61.03;22.25;;;2.10;99.90;;;;;;5007539;28;20111;-67
2023/01/03 04:48:13;;;;;;;61.90;23.65;;;2.20;99.90;;;;;;5030115;28;20046;-66
2023/01/03 04:50:38;;;;;;;63.92;23.67;;;2.20;99.90;;;;;;5009705;28;20120;-66
2023/01/03 04:53:04;;;;;;;70.00;22.75;;;2.20;99.90;;;;;;5023693;28;20075;-66
2023/01/03 04:55:29;;;;;;;64.40;23.35;;;2.10;99.90;;;;;;5024641;28;20037;-66
2023/01/03 04:57:55;;;;;;;65.40;22.73;;;2.20;99.90;;;;;;5031550;28;20045;-67
2023/01/03 05:00:21;;;;;;;73.68;25.30;;;2.10;99.90;;;;;;5016245;28;20142;-66
2023/01/03 05:02:46;;;;;;;73.10;24.90;;;2.20;99.90;;;;;;5028181;28;20384;-67
2023/01/03 05:05:12;;;;;;;66.50;25.02;;;2.20;99.90;;;;;;5014361;28;20150;-66
2023/01/03 05:07:37;;;;;;;68.13;24.48;;;2.20;99.90;;;;;;5019211;28;20122;-66
2023/01/03 05:10:03;;;;;;;78.28;26.60;;;2.30;99.90;;;;;;5030442;28;20384;-67
2023/01/03 05:12:29;;;;;;;72.13;25.38;;;2.20;99.90;;;;;;5013679;28;20095;-66
2023/01/03 05:14:54;;;;;;;78.03;26.33;;;2.10;99.90;;;;;;5023782;28;20042;-66
2023/01/03 05:17:20;;;;;;;84.88;27.63;;;2.20;99.90;;;;;;5015008;28;20045;-67
2023/01/03 05:28:01;;;;;;;63.20;23.58;;;2.10;99.90;;;;;;5028977;28;20047;-63
2023/01/03 05:30:26;;;;;;;69.95;26.60;;;2.10;99.90;;;;;;5030614;28;20036;-64
2023/01/03 05:32:52;;;;;;;81.07;27.83;;;2.10;99.90;;;;;;5027360;28;20045;-64
2023/01/03 05:35:17;;;;;;;70.18;26.55;;;2.10;99.90;;;;;;5030152;28;20033;-64
2023/01/03 05:37:43;;;;;;;74.72;25.67;;;2.10;99.90;;;;;;5030589;28;20388;-63
2023/01/03 05:40:09;;;;;;;74.20;26.55;;;2.10;99.90;;;;;;5024156;28;20041;-63
2023/01/03 05:42:35;;;;;;;68.45;24.55;;;2.10;99.90;;;;;;5030777;28;20124;-64
2023/01/03 05:45:00;;;;;;;60.05;23.73;;;2.10;99.90;;;;;;5031006;28;20045;-63
2023/01/03 05:47:26;;;;;;;57.08;24.20;;;2.00;99.90;;;;;;5028510;28;20042;-63
2023/01/03 05:49:51;;;;;;;64.22;24.35;;;1.90;99.90;;;;;;5036217;28;20040;-63
2023/01/03 05:52:17;;;;;;;71.82;25.00;;;1.90;99.90;;;;;;5030145;28;20499;-63
2023/01/03 05:54:44;;;;;;;62.67;24.63;;;1.90;99.90;;;;;;5030940;28;20132;-64
2023/01/03 05:57:09;;;;;;;63.55;24.75;;;1.80;99.90;;;;;;5026818;28;20207;-63
2023/01/03 05:59:35;;;;;;;73.80;24.55;;;1.80;99.90;;;;;;5030559;28;20594;-63
2023/01/03 06:02:00;;;;;;;67.85;24.70;;;1.80;99.90;;;;;;5026154;28;20042;-63
2023/01/03 06:04:26;;;;;;;65.65;24.52;;;1.80;99.90;;;;;;5029962;28;20033;-63
2023/01/03 06:06:51;;;;;;;71.57;25.50;;;1.80;99.90;;;;;;5030744;28;20391;-62
2023/01/03 06:09:17;;;;;;;64.28;24.70;;;1.80;99.90;;;;;;5031497;28;20116;-63
2023/01/03 06:11:43;;;;;;;67.70;26.00;;;1.80;99.90;;;;;;5027122;28;20037;-63
2023/01/03 06:14:08;;;;;;;66.15;25.45;;;1.80;99.90;;;;;;5027754;28;20080;-64
2023/01/03 06:19:18;;;;;;;324.42;30.38;;;1.70;99.90;;;;;;5023273;28;20472;-66
2023/01/03 06:21:44;;;;;;;436.10;32.28;;;1.80;99.90;;;;;;5030130;28;20117;-64
2023/01/03 06:24:10;;;;;;;300.75;25.00;;;1.80;99.90;;;;;;5030530;28;20616;-66
2023/01/03 06:26:36;;;;;;;189.43;25.90;;;1.80;99.90;;;;;;5030939;28;20507;-66
2023/01/03 06:29:02;;;;;;;161.95;23.67;;;1.80;99.90;;;;;;5025634;28;20071;-66
2023/01/03 06:31:28;;;;;;;239.43;24.30;;;1.80;99.90;;;;;;5028294;28;20476;-66
2023/01/03 06:33:53;;;;;;;172.93;21.33;;;1.80;99.90;;;;;;5030462;28;20036;-66
2023/01/03 06:36:21;;;;;;;231.98;23.98;;;1.80;99.90;;;;;;5031050;28;20392;-64
2023/01/03 06:38:47;;;;;;;180.45;23.13;;;1.90;99.90;;;;;;5027986;28;20073;-66
2023/01/03 06:41:13;;;;;;;234.10;26.27;;;1.90;99.90;;;;;;5030729;28;20068;-66
2023/01/03 06:43:39;;;;;;;387.30;31.48;;;1.90;99.90;;;;;;5034039;28;20050;-65
2023/01/03 06:54:24;;;;;;;195.27;19.15;;;2.00;99.90;;;;;;5033824;28;20136;-64
2023/01/03 06:56:50;;;;;;;207.13;21.42;;;2.10;99.90;;;;;;5032645;28;20034;-66
2023/01/03 06:59:16;;;;;;;213.27;21.30;;;2.10;99.90;;;;;;5033479;28;20381;-65
2023/01/03 07:01:46;;;;;;;252.55;23.80;;;2.10;99.90;;;;;;5033305;28;20036;-65
2023/01/03 07:04:12;;;;;;;258.90;24.52;;;2.20;99.90;;;;;;5031465;28;20092;-65
2023/01/03 07:06:38;;;;;;;210.02;22.25;;;2.20;99.90;;;;;;5033587;28;20479;-65
2023/01/03 07:09:04;;;;;;;251.25;22.65;;;2.20;99.90;;;;;;5033635;28;20037;-65
2023/01/03 07:11:30;;;;;;;319.30;26.27;;;2.30;99.90;;;;;;5032993;28;20043;-66
2023/01/03 07:13:58;;;;;;;322.63;27.65;;;2.40;99.90;;;;;;5005719;28;20427;-65
2023/01/03 07:16:39;;;;;;;322.42;26.90;;;2.40;99.90;;;;;;5033422;28;20065;-65
2023/01/03 07:19:06;;;;;;;349.52;28.92;;;2.40;99.90;;;;;;5033691;28;20084;-65
2023/01/03 07:21:33;;;;;;;249.13;24.02;;;2.60;99.90;;;;;;5024699;28;20394;-66
2023/01/03 07:24:00;;;;;;;249.25;24.88;;;2.70;99.90;;;;;;5029665;28;20501;-65
2023/01/03 07:26:29;;;;;;;341.48;29.98;;;2.80;99.90;;;;;;5030220;28;20129;-65
2023/01/03 07:28:55;;;;;;;299.17;25.52;;;2.90;99.90;;;;;;5029692;28;20033;-63
2023/01/03 07:31:21;;;;;;;262.30;25.92;;;2.90;99.90;;;;;;5028506;28;20042;-66
2023/01/03 07:33:47;;;;;;;289.85;26.60;;;3.00;99.90;;;;;;5022240;28;20598;-66
2023/01/03 07:36:14;;;;;;;420.08;31.73;;;3.20;99.90;;;;;;5030635;28;20034;-66
2023/01/03 07:38:42;;;;;;;310.98;27.85;;;3.20;99.90;;;;;;5032676;28;20087;-66
2023/01/03 07:41:07;;;;;;;300.38;26.38;;;3.30;99.90;;;;;;5038228;28;20461;-67
2023/01/03 07:43:37;;;;;;;418.98;30.88;;;3.30;99.90;;;;;;5032377;28;20045;-66
2023/01/03 07:46:08;;;;;;;414.42;32.28;;;3.40;99.90;;;;;;5029207;28;20037;-63
2023/01/03 07:48:34;;;;;;;325.52;30.10;;;3.50;99.90;;;;;;5028797;28;20426;-66
2023/01/03 07:51:00;;;;;;;410.77;31.08;;;3.60;99.90;;;;;;5013030;28;20053;-64
2023/01/03 07:53:26;;;;;;;391.58;30.98;;;3.60;99.90;;;;;;5026044;28;20033;-63
2023/01/03 07:55:52;;;;;;;363.25;31.35;;;3.70;99.90;;;;;;5028102;28;20041;-63
2023/01/03 07:58:18;;;;;;;411.42;33.05;;;3.80;99.90;;;;;;5029659;28;20033;-64
2023/01/03 08:00:43;;;;;;;229.25;27.92;;;3.90;99.90;;;;;;5031739;28;20052;-64
2023/01/03 08:03:09;;;;;;;175.88;29.65;;;3.90;99.90;;;;;;5025206;28;20037;-67
2023/01/03 08:05:35;;;;;;;160.00;27.13;;;4.10;99.90;;;;;;5029102;28;20064;-63
2023/01/03 08:08:02;;;;;;;137.27;27.10;;;4.10;99.90;;;;;;5028785;28;20041;-63
2023/01/03 08:13:18;;;;;;;134.13;26.65;;;4.20;99.90;;;;;;5028052;28;20114;-63
2023/01/03 08:15:48;;;;;;;120.80;25.02;;;4.30;99.90;;;;;;5028810;28;20045;-65
2023/01/03 08:18:16;;;;;;;144.05;26.75;;;4.30;99.90;;;;;;5029229;28;20037;-64
2023/01/03 08:20:42;;;;;;;147.40;27.25;;;4.40;99.90;;;;;;5024675;28;20068;-64
2023/01/03 08:23:08;;;;;;;138.13;28.58;;;4.40;99.90;;;;;;5040519;28;20069;-64
2023/01/03 08:25:33;;;;;;;133.95;27.90;;;4.50;99.90;;;;;;5040508;28;20067;-63
2023/01/03 08:28:00;;;;;;;147.30;28.88;;;4.50;99.90;;;;;;5031074;28;20045;-64
2023/01/03 08:30:27;;;;;;;153.77;29.88;;;4.50;99.90;;;;;;5031643;28;20037;-63
2023/01/03 08:32:55;;;;;;;135.35;29.13;;;4.60;99.90;;;;;;5029078;28;20057;-64
2023/01/03 08:35:23;;;;;;;137.48;28.50;;;4.60;99.90;;;;;;5030980;28;20497;-67
2023/01/03 08:37:49;;;;;;;135.60;28.63;;;4.60;99.90;;;;;;5037014;28;20068;-65
2023/01/03 08:40:17;;;;;;;140.10;28.58;;;4.60;99.90;;;;;;5040261;28;20071;-64
2023/01/03 08:42:44;;;;;;;112.30;28.45;;;4.70;99.90;;;;;;5036829;28;20049;-65
2023/01/03 08:45:14;;;;;;;126.90;27.77;;;4.80;99.90;;;;;;5013545;28;20464;-65
2023/01/03 08:47:41;;;;;;;123.55;27.73;;;4.80;99.90;;;;;;5025787;28;20076;-65
2023/01/03 08:50:08;;;;;;;120.65;26.30;;;4.80;99.90;;;;;;5034454;28;20595;-65
2023/01/03 08:52:34;;;;;;;131.93;28.77;;;4.80;99.90;;;;;;5029381;28;20059;-65
2023/01/03 08:54:59;;;;;;;158.13;30.60;;;4.90;99.90;;;;;;5031389;28;20121;-65
2023/01/03 08:57:25;;;;;;;125.60;30.05;;;4.90;99.90;;;;;;5028241;28;20167;-65
2023/01/03 08:59:51;;;;;;;126.90;29.50;;;5.00;99.90;;;;;;5026775;28;20044;-64
2023/01/03 09:02:16;;;;;;;132.85;30.13;;;5.00;99.90;;;;;;5022534;28;20490;-63
2023/01/03 09:04:42;;;;;;;130.40;29.95;;;5.00;99.90;;;;;;5024378;28;20037;-65
2023/01/03 09:07:07;;;;;;;131.48;29.10;;;5.00;99.90;;;;;;5026116;28;20510;-65
2023/01/03 09:09:33;;;;;;;124.70;29.50;;;5.10;99.90;;;;;;5026136;28;20073;-65
2023/01/03 09:11:58;;;;;;;139.15;30.42;;;5.10;99.90;;;;;;5029971;28;20052;-64
2023/01/03 09:14:24;;;;;;;154.75;30.95;;;5.10;99.90;;;;;;5024810;28;20116;-64
2023/01/03 09:16:50;;;;;;;146.45;31.75;;;5.10;99.90;;;;;;5028027;28;20045;-65
2023/01/03 09:19:15;;;;;;;137.02;30.50;;;5.10;99.90;;;;;;5027738;28;20065;-65
2023/01/03 09:21:41;;;;;;;152.77;30.88;;;5.20;99.90;;;;;;5034380;28;20045;-64
2023/01/03 09:24:07;;;;;;;149.85;30.48;;;5.20;99.90;;;;;;5021564;28;20037;-65
2023/01/03 09:26:33;;;;;;;138.60;32.20;;;5.20;99.90;;;;;;5031354;28;20041;-66
2023/01/03 09:28:58;;;;;;;134.98;31.13;;;5.20;99.90;;;;;;5028323;28;20038;-64
2023/01/03 09:31:24;;;;;;;140.23;32.92;;;5.30;99.90;;;;;;5030761;28;20489;-63
2023/01/03 09:33:49;;;;;;;139.45;30.90;;;5.30;99.90;;;;;;5026114;28;20037;-64
2023/01/03 09:36:15;;;;;;;129.10;30.83;;;5.30;99.90;;;;;;5029738;28;20495;-64
2023/01/03 09:38:40;;;;;;;127.90;30.13;;;5.30;99.90;;;;;;5025848;28;20041;-64
2023/01/03 09:41:24;;;;;;;137.75;30.17;;;5.30;99.90;;;;;;5029439;28;20045;-64
2023/01/03 09:43:58;;;;;;;147.85;31.05;;;5.30;99.90;;;;;;5021215;28;20072;-64
2023/01/03 09:46:25;;;;;;;138.77;30.08;;;5.30;99.90;;;;;;5035868;28;20132;-64
2023/01/03 09:48:52;;;;;;;140.40;31.52;;;5.30;99.90;;;;;;5031385;28;20045;-64
2023/01/03 10:06:34;;;;;;;122.97;29.63;;;5.60;99.90;;;;;;4991438;28;20061;-64
2023/01/03 10:09:23;;;;;;;134.32;31.63;;;5.60;99.90;;;;;;5028007;28;20554;-64
2023/01/03 10:12:01;;;;;;;120.05;30.88;;;5.70;99.90;;;;;;5030817;28;20045;-64
2023/01/03 10:14:35;;;;;;;124.95;31.20;;;5.70;99.90;;;;;;5030886;28;20042;-64
2023/01/03 10:17:33;;;;;;;118.68;29.02;;;5.70;99.90;;;;;;5031080;28;20046;-64
2023/01/03 10:20:25;;;;;;;121.43;29.85;;;5.80;99.90;;;;;;5034106;28;20045;-64
2023/01/03 10:22:54;;;;;;;122.88;30.42;;;5.80;99.90;;;;;;5032251;28;20065;-64
2023/01/03 10:25:21;;;;;;;120.93;31.10;;;5.90;99.90;;;;;;5032047;28;20041;-64
2023/01/03 10:27:55;;;;;;;124.35;31.80;;;5.90;99.90;;;;;;5034062;28;20491;-64
2023/01/03 10:31:12;;;;;;;122.82;32.33;;;5.90;99.90;;;;;;5035093;28;20082;-64
2023/01/03 10:33:45;;;;;;;110.72;29.45;;;5.90;99.90;;;;;;4978580;28;20126;-64
2023/01/03 10:36:11;;;;;;;114.85;30.83;;;6.00;99.90;;;;;;5022765;28;20048;-64
2023/01/03 10:38:38;;;;;;;96.82;28.85;;;6.00;99.90;;;;;;5034548;28;20087;-64
2023/01/03 10:41:13;;;;;;;109.95;31.38;;;6.10;99.90;;;;;;5031429;28;20091;-64
2023/01/03 10:43:43;;;;;;;112.05;31.58;;;6.10;99.90;;;;;;5033991;28;20111;-64
2023/01/03 10:46:18;;;;;;;106.95;30.27;;;6.20;99.90;;;;;;5054406;28;20041;-64
2023/01/03 10:48:45;;;;;;;106.60;28.83;;;6.30;99.90;;;;;;5041364;28;20103;-64
2023/01/03 10:51:23;;;;;;;85.82;27.27;;;6.30;99.90;;;;;;5033670;28;20112;-64
2023/01/03 10:53:51;;;;;;;79.55;25.95;;;6.30;99.90;;;;;;5034265;28;20041;-64
2023/01/03 10:56:17;;;;;;;89.80;27.95;;;6.30;99.90;;;;;;5033996;28;20052;-64
2023/01/03 10:58:43;;;;;;;84.38;26.35;;;6.30;99.90;;;;;;5030553;28;20044;-64
2023/01/03 11:01:22;;;;;;;89.40;27.73;;;6.40;99.90;;;;;;5037553;28;20399;-64
2023/01/03 11:04:26;;;;;;;85.32;26.20;;;6.40;99.90;;;;;;5031872;28;20329;-65
2023/01/03 11:07:02;;;;;;;73.70;25.45;;;6.40;99.90;;;;;;4935111;29;20044;-63
2023/01/03 11:09:34;;;;;;;73.70;26.75;;;6.40;99.90;;;;;;4942764;29;20039;-65
2023/01/03 11:12:17;;;;;;;64.93;24.95;;;6.40;99.90;;;;;;4993786;28;20419;-63
2023/01/03 11:14:54;;;;;;;74.40;26.65;;;6.50;99.90;;;;;;5026381;28;20384;-63
2023/01/03 11:17:22;;;;;;;71.05;26.60;;;6.50;99.90;;;;;;5032108;28;20388;-63
2023/01/03 11:19:49;;;;;;;76.72;26.17;;;6.60;99.90;;;;;;5024460;28;20037;-63
2023/01/03 11:22:57;;;;;;;65.97;24.02;;;6.60;99.90;;;;;;5028182;28;20045;-63
2023/01/03 11:25:50;;;;;;;63.88;23.45;;;6.70;99.90;;;;;;4962231;28;20472;-64
2023/01/03 11:28:25;;;;;;;55.88;21.95;;;6.70;99.90;;;;;;4961561;28;20053;-63
2023/01/03 11:30:59;;;;;;;66.18;23.55;;;6.70;99.90;;;;;;5008305;28;20042;-63
2023/01/03 11:33:42;;;;;;;61.40;22.30;;;6.70;99.90;;;;;;5028810;28;20056;-63
2023/01/03 11:36:43;;;;;;;60.30;24.80;;;6.70;99.90;;;;;;5028692;28;20113;-63
2023/01/03 11:39:31;;;;;;;51.27;21.73;;;6.70;99.90;;;;;;5009726;28;20081;-63
2023/01/03 11:42:24;;;;;;;50.22;21.80;;;6.70;99.90;;;;;;5027183;28;20033;-63
2023/01/03 11:45:14;;;;;;;52.30;22.30;;;6.70;99.90;;;;;;5040728;28;20045;-63
2023/01/03 11:47:53;;;;;;;51.65;21.38;;;6.70;99.90;;;;;;5029565;28;20060;-64
2023/01/03 11:50:24;;;;;;;49.40;24.00;;;6.70;99.90;;;;;;5034637;28;20037;-64
2023/01/03 11:52:56;;;;;;;57.53;22.80;;;6.70;99.90;;;;;;5030950;28;20040;-64
2023/01/03 11:55:40;;;;;;;65.38;27.13;;;6.80;99.90;;;;;;5035259;28;20034;-64
2023/01/03 11:58:43;;;;;;;50.30;21.33;;;6.80;99.90;;;;;;5029767;28;20580;-65
2023/01/03 12:01:43;;;;;;;51.15;21.08;;;6.80;99.90;;;;;;5027685;28;20037;-64
2023/01/03 12:04:33;;;;;;;56.00;24.75;;;6.90;99.90;;;;;;5027297;28;20042;-64
2023/01/03 12:07:10;;;;;;;46.45;20.00;;;6.90;99.90;;;;;;5028136;28;20567;-67
2023/01/03 12:09:51;;;;;;;55.30;23.65;;;7.00;99.90;;;;;;5030611;28;20069;-66
2023/01/03 12:12:38;;;;;;;52.63;22.00;;;7.00;99.90;;;;;;5027607;28;20045;-66
2023/01/03 12:15:17;;;;;;;43.92;20.13;;;7.00;99.90;;;;;;5008141;28;20124;-65
2023/01/03 12:17:53;;;;;;;45.35;20.33;;;7.10;99.90;;;;;;5034542;28;20045;-64
2023/01/03 12:20:23;;;;;;;46.58;18.27;;;7.10;99.90;;;;;;5035448;28;20040;-64
2023/01/03 12:23:00;;;;;;;55.72;23.60;;;7.10;99.90;;;;;;5019072;28;20054;-64
2023/01/03 12:25:34;;;;;;;51.05;22.88;;;7.10;99.90;;;;;;5037480;28;20037;-64
2023/01/03 12:28:12;;;;;;;42.15;18.95;;;7.10;99.90;;;;;;5033838;28;20084;-65
2023/01/03 12:30:56;;;;;;;47.60;21.90;;;7.10;99.90;;;;;;5039129;28;20495;-66
2023/01/03 12:33:58;;;;;;;47.53;19.88;;;7.10;99.90;;;;;;5022318;28;20069;-66
2023/01/03 12:36:33;;;;;;;51.15;20.27;;;7.10;99.90;;;;;;5034585;28;20044;-66
2023/01/03 12:39:25;;;;;;;44.10;18.33;;;7.20;99.90;;;;;;5030649;28;20129;-65
2023/01/03 12:42:00;;;;;;;49.05;20.65;;;7.20;99.90;;;;;;5031799;28;20124;-66
2023/01/03 12:45:01;;;;;;;47.20;19.27;;;7.20;99.90;;;;;;5032117;28;20037;-66
2023/01/03 12:47:46;;;;;;;45.53;20.25;;;7.20;99.90;;;;;;4982062;28;20547;-66
2023/01/03 12:50:32;;;;;;;49.97;21.73;;;7.20;99.90;;;;;;5043636;28;20041;-66
2023/01/03 12:53:10;;;;;;;54.40;20.90;;;7.20;99.90;;;;;;5027507;28;20510;-65
2023/01/03 12:56:19;;;;;;;44.22;19.05;;;7.20;99.90;;;;;;5012044;28;20391;-66
2023/01/03 12:58:57;;;;;;;43.58;18.45;;;7.30;99.90;;;;;;5026649;28;20049;-66
2023/01/03 13:01:28;;;;;;;45.60;20.08;;;7.30;99.90;;;;;;5013018;28;20049;-66
2023/01/03 13:04:01;;;;;;;44.85;22.23;;;7.40;99.90;;;;;;5027285;28;20076;-66
2023/01/03 13:06:38;;;;;;;38.58;15.98;;;7.40;99.90;;;;;;5030270;28;20065;-66
2023/01/03 13:09:12;;;;;;;43.92;18.55;;;7.40;99.90;;;;;;5013823;28;20056;-66
2023/01/03 13:11:47;;;;;;;42.03;18.90;;;7.40;99.90;;;;;;5028226;28;20037;-67
2023/01/03 13:14:19;;;;;;;40.42;18.38;;;7.40;99.90;;;;;;5023897;28;20025;-66
2023/01/03 13:16:48;;;;;;;46.67;19.42;;;7.40;99.90;;;;;;5031701;28;20047;-66
2023/01/03 13:19:22;;;;;;;41.38;18.77;;;7.40;99.90;;;;;;5027843;28;20136;-66
2023/01/03 13:21:53;;;;;;;33.17;16.60;;;7.50;99.90;;;;;;5011198;28;20534;-66
2023/01/03 13:24:41;;;;;;;33.72;16.88;;;7.50;99.90;;;;;;5029475;28;20083;-67
2023/01/03 13:27:19;;;;;;;42.72;17.38;;;7.50;99.90;;;;;;5008947;28;20041;-66
2023/01/03 13:29:47;;;;;;;36.30;16.75;;;7.50;99.90;;;;;;5028711;28;20061;-66
2023/01/03 13:32:18;;;;;;;39.38;15.82;;;7.50;99.90;;;;;;5021713;28;20034;-66
2023/01/03 13:35:04;;;;;;;31.77;14.82;;;7.60;99.90;;;;;;5027524;28;20050;-65
2023/01/03 13:37:43;;;;;;;35.60;16.13;;;7.60;99.90;;;;;;5028962;28;20045;-67
2023/01/03 13:40:27;;;;;;;32.90;14.35;;;7.70;99.90;;;;;;5031491;28;20037;-66
2023/01/03 13:43:07;;;;;;;34.92;14.65;;;7.70;99.90;;;;;;5030915;28;20099;-66
2023/01/03 13:45:33;;;;;;;33.57;14.57;;;7.80;99.90;;;;;;5032508;28;20033;-66
2023/01/03 13:48:23;;;;;;;31.33;14.32;;;7.80;99.90;;;;;;5040764;28;20036;-67
2023/01/03 13:51:15;;;;;;;36.20;14.02;;;7.90;99.90;;;;;;5044429;28;20056;-66
2023/01/03 13:53:59;;;;;;;30.10;14.02;;;7.80;99.90;;;;;;5035838;28;20124;-65
2023/01/03 13:56:36;;;;;;;30.65;13.93;;;7.90;99.90;;;;;;5040044;28;20037;-65